SBOSBO YUL / CYUL
Speedbird OnlineSpeedbird Online YUL / CYUL

Montreal / Pierre Elliott Trudeau International Airport
02:36 11.3°C

Location Montreal, Canada
Latitude: 45.4706001282
Longitude: -73.7407989502
Web Airport Website | Wikipedia
Altitude 36 Meter / 118 Feet
Distance 5,250 KM / 3,262 Miles
from London.
Time Zone UTC -4 hours (America/Toronto)
Codes IATA: YUL
ICAO: CYUL
Currency £1 equals CAD 1.54
Runways
RunwayLength (m)Surface
06L3353Asphalt
06R2926Asphalt
102134Asphalt
24L2926Asphalt
24R3353Asphalt
282134Asphalt
Radio
TypeDescriptionFrequency
APRONMontreal Apron122.075
ARRMontreal Terminal Arrivals118.9
ARRMontreal Terminal126.9
ATISFrench ATIS127.5
ATISEnglish ATIS133.7
CLNC DELMontreal Clearance125.6
DEPMontreal Terminal Departures118.9
GNDMontreal Ground121.9
RCOQuebec Radio123.55
TWRMontreal Tower119.9
VFR ADVMontreal Terminal134.15
Live ATC
METAR CYUL 060600Z 22005KT 15SM FEW250 12/06 A2993 RMK CI1 SLP137
TAF TAF CYUL 060545Z 0606/0706 18005KT P6SM FEW250 FM061400 23012KT P6SM SCT150 BECMG 0616/0618 23010G20KT BECMG 0622/0624 22006KT FM070300 22008KT P6SM BKN100 RMK NXT FCST BY 060900Z
Weather As Of 06 Oct 2022 02:36
Description Few clouds
Wind 9 km/h from South-West (220°)
Cloud Cover 20%
Precipitation Rain: none, Snow: none
Sunrise 06:59
Sunset 18:26
Lounges National Bank Lounge , International Departures
Rotations During the last 90 days there were
75 flights from LHR
70 flights to LHR


© 2017-2022 Speedbird Online